createdAt,value
2022-08-08T00:00:59.659Z,3.20
2022-08-08T00:06:07.223Z,3.15
2022-08-08T00:12:02.947Z,3.28
2022-08-08T00:17:22.457Z,3.22
2022-08-08T00:22:30.801Z,3.65
2022-08-08T00:27:37.778Z,3.10
2022-08-08T00:33:04.239Z,3.33
2022-08-08T00:38:31.382Z,3.00
2022-08-08T00:43:59.257Z,3.30
2022-08-08T00:49:35.660Z,3.47
2022-08-08T00:54:52.364Z,3.70
2022-08-08T01:00:17.785Z,3.63
2022-08-08T01:05:42.570Z,3.55
2022-08-08T01:11:51.883Z,3.83
2022-08-08T01:17:11.534Z,4.25
2022-08-08T01:22:51.043Z,3.88
2022-08-08T01:27:59.370Z,3.72
2022-08-08T01:33:24.275Z,3.55
2022-08-08T01:39:04.330Z,4.35
2022-08-08T01:44:26.497Z,4.75
2022-08-08T01:49:40.462Z,5.43
2022-08-08T01:55:25.864Z,5.03
2022-08-08T02:00:54.744Z,4.75
2022-08-08T02:06:07.910Z,4.70
2022-08-08T02:11:59.457Z,4.93
2022-08-08T02:17:10.749Z,4.68
2022-08-08T02:22:52.635Z,5.07
2022-08-08T02:28:02.062Z,4.55
2022-08-08T02:33:12.784Z,4.60
2022-08-08T02:38:52.350Z,4.82
2022-08-08T02:44:37.276Z,4.35
2022-08-08T02:49:48.053Z,4.82
2022-08-08T02:55:02.727Z,6.07
2022-08-08T03:00:32.197Z,5.43
2022-08-08T03:05:53.491Z,5.70
2022-08-08T03:11:47.988Z,5.63
2022-08-08T03:16:50.633Z,5.50
2022-08-08T03:21:58.486Z,5.45
2022-08-08T03:27:13.588Z,5.72
2022-08-08T03:32:34.215Z,5.20
2022-08-08T03:38:54.565Z,5.35
2022-08-08T03:43:16.444Z,5.85
2022-08-08T03:49:09.739Z,5.57
2022-08-08T03:53:47.762Z,5.88
2022-08-08T03:58:51.500Z,6.43
2022-08-08T04:03:58.676Z,6.38
2022-08-08T04:09:10.450Z,5.72
2022-08-08T04:14:33.239Z,6.20
2022-08-08T04:19:36.717Z,5.68
2022-08-08T04:24:40.216Z,6.32
2022-08-08T04:29:55.468Z,6.93
2022-08-08T04:35:04.956Z,6.18
2022-08-08T04:40:10.746Z,6.40
2022-08-08T04:45:15.502Z,6.70
2022-08-08T04:50:25.408Z,7.10
2022-08-08T04:55:37.936Z,7.70
2022-08-08T05:00:56.617Z,7.90
2022-08-08T05:05:58.404Z,6.70
2022-08-08T05:11:03.628Z,7.30
2022-08-08T05:16:55.154Z,6.80
2022-08-08T05:21:28.106Z,5.88
2022-08-08T05:26:48.691Z,6.73
2022-08-08T05:32:03.784Z,6.18
2022-08-08T05:37:18.925Z,6.90
2022-08-08T05:42:43.155Z,6.28
2022-08-08T05:48:00.529Z,5.93
2022-08-08T05:53:53.794Z,6.53
2022-08-08T05:58:32.622Z,6.47
2022-08-08T06:03:36.746Z,6.75
2022-08-08T06:08:53.212Z,6.20
2022-08-08T06:13:57.543Z,6.28
2022-08-08T06:19:01.918Z,6.03
2022-08-08T06:24:13.885Z,6.03
2022-08-08T06:30:07.390Z,5.90
2022-08-08T06:36:07.312Z,5.78
2022-08-08T06:40:53.808Z,5.07
2022-08-08T06:45:56.728Z,5.90
2022-08-08T06:50:59.178Z,4.80
2022-08-08T06:56:03.392Z,4.10
2022-08-08T07:01:52.165Z,3.70
2022-08-08T07:06:34.305Z,3.60
2022-08-08T07:11:51.310Z,3.60
2022-08-08T07:17:14.305Z,4.13
2022-08-08T07:22:27.962Z,3.40
2022-08-08T07:28:02.207Z,4.00
2022-08-08T07:33:03.544Z,4.65
2022-08-08T07:38:18.400Z,3.80
2022-08-08T07:43:35.151Z,3.80
2022-08-08T07:48:39.374Z,5.00
2022-08-08T07:54:27.109Z,3.33
2022-08-08T07:59:37.679Z,5.10
2022-08-08T08:04:46.725Z,3.33
2022-08-08T08:09:51.245Z,3.35
2022-08-08T08:15:05.372Z,3.40
2022-08-08T08:20:10.147Z,3.30
2022-08-08T08:25:12.112Z,3.40
2022-08-08T08:30:19.228Z,3.35
2022-08-08T08:35:29.998Z,3.85
2022-08-08T08:40:48.510Z,3.58
2022-08-08T08:45:57.343Z,4.00
2022-08-08T08:51:02.025Z,4.10
2022-08-08T08:56:06.960Z,3.78
2022-08-08T09:01:13.273Z,3.90
2022-08-08T09:06:33.775Z,3.90
2022-08-08T09:11:47.776Z,5.10
2022-08-08T09:16:59.982Z,4.43
2022-08-08T09:22:06.121Z,3.83
2022-08-08T09:27:14.813Z,3.97
2022-08-08T09:32:39.691Z,4.25
2022-08-08T09:38:04.182Z,5.30
2022-08-08T09:43:24.163Z,4.45
2022-08-08T09:48:46.609Z,3.75
2022-08-08T09:54:07.802Z,4.10
2022-08-08T10:00:01.638Z,4.32
2022-08-08T10:04:48.599Z,4.70
2022-08-08T10:09:59.817Z,3.90
2022-08-08T10:20:40.149Z,4.03
2022-08-08T10:25:56.235Z,4.00
2022-08-08T10:31:21.519Z,4.40
2022-08-08T10:36:44.766Z,3.22
2022-08-08T10:42:15.316Z,4.07
2022-08-08T10:47:21.584Z,4.25
2022-08-08T10:52:42.324Z,4.18
2022-08-08T10:57:53.063Z,4.00
2022-08-08T11:02:55.976Z,4.43
2022-08-08T11:08:38.932Z,4.20
2022-08-08T11:13:31.706Z,4.43
2022-08-08T11:18:36.302Z,2.67
2022-08-08T11:23:41.774Z,3.50
2022-08-08T11:28:45.236Z,3.22
2022-08-08T11:34:03.198Z,3.63
2022-08-08T11:39:12.719Z,3.90
2022-08-08T11:44:15.830Z,3.45
2022-08-08T11:49:18.639Z,2.83
2022-08-08T11:54:34.484Z,3.72
2022-08-08T12:00:02.727Z,2.53
2022-08-08T12:05:13.610Z,2.30
2022-08-08T12:15:42.571Z,3.15
2022-08-08T12:20:50.687Z,3.00
2022-08-08T12:25:56.902Z,3.58
2022-08-08T12:31:06.435Z,3.97
2022-08-08T12:36:13.224Z,3.83
2022-08-08T12:41:33.989Z,3.92
2022-08-08T12:46:37.416Z,4.55
2022-08-08T12:51:50.175Z,4.90
2022-08-08T12:56:56.095Z,4.03
2022-08-08T13:02:01.665Z,3.72
2022-08-08T13:07:16.696Z,3.83
2022-08-08T13:12:32.966Z,3.88
2022-08-08T13:17:54.122Z,4.05
2022-08-08T13:28:28.869Z,3.63
2022-08-08T13:33:42.077Z,3.60
2022-08-08T13:38:45.379Z,3.92
2022-08-08T13:43:50.874Z,4.13
2022-08-08T13:49:11.164Z,5.03
2022-08-08T13:54:22.392Z,4.70
2022-08-08T13:59:35.412Z,4.93
2022-08-08T14:05:09.015Z,4.45
2022-08-08T14:10:32.695Z,4.97
2022-08-08T14:15:50.212Z,5.75
2022-08-08T14:21:02.708Z,4.28
2022-08-08T14:26:10.788Z,4.93
2022-08-08T14:31:23.239Z,5.03
2022-08-08T14:36:37.127Z,4.68
2022-08-08T14:41:53.312Z,4.47
2022-08-08T14:47:00.146Z,6.07
2022-08-08T14:52:09.853Z,6.75
2022-08-08T14:57:13.321Z,5.15
2022-08-08T15:02:31.031Z,6.90
2022-08-08T15:07:39.768Z,9.95
2022-08-08T15:12:44.722Z,6.35
2022-08-08T15:17:48.482Z,5.47
2022-08-08T15:22:50.314Z,4.93
2022-08-08T15:28:04.914Z,4.53
2022-08-08T15:33:35.214Z,4.57
2022-08-08T15:38:40.437Z,5.03
2022-08-08T15:43:42.569Z,4.40
2022-08-08T15:49:04.505Z,4.78
2022-08-08T15:54:06.616Z,4.13
2022-08-08T15:59:20.484Z,3.88
2022-08-08T16:04:42.527Z,5.90
2022-08-08T16:13:14.323Z,6.85
2022-08-08T16:15:07.412Z,4.75
2022-08-08T16:20:13.383Z,4.95
2022-08-08T16:25:15.950Z,3.83
2022-08-08T16:30:32.576Z,4.20
2022-08-08T16:35:38.616Z,4.20
2022-08-08T16:40:40.797Z,4.68
2022-08-08T16:46:43.546Z,6.57
2022-08-08T16:51:04.856Z,7.70
2022-08-08T16:56:14.272Z,7.68
2022-08-08T17:01:17.340Z,6.90
2022-08-08T17:06:36.737Z,6.97
2022-08-08T17:11:49.072Z,6.10
2022-08-08T17:16:58.569Z,5.47
2022-08-08T17:22:05.302Z,4.88
2022-08-08T17:27:08.108Z,6.25
2022-08-08T17:32:12.401Z,5.32
2022-08-08T17:37:14.272Z,4.50
2022-08-08T17:42:17.936Z,4.72
2022-08-08T17:47:24.039Z,4.30
2022-08-08T17:52:29.987Z,4.78
2022-08-08T17:57:35.397Z,5.80
2022-08-08T18:02:37.997Z,6.25
2022-08-08T18:08:02.288Z,7.15
2022-08-08T18:13:04.139Z,7.18
2022-08-08T18:18:28.696Z,8.15
2022-08-08T18:23:31.269Z,9.00
2022-08-08T18:28:34.856Z,9.68
2022-08-08T18:34:11.762Z,11.45
2022-08-08T18:39:27.457Z,10.63
2022-08-08T18:44:29.973Z,10.27
2022-08-08T18:49:49.126Z,11.35
2022-08-08T18:54:59.717Z,12.15
2022-08-08T19:00:16.909Z,11.13
2022-08-08T19:05:22.147Z,10.73
2022-08-08T19:10:24.127Z,11.10
2022-08-08T19:15:34.144Z,10.52
2022-08-08T19:20:37.958Z,9.98
2022-08-08T19:26:19.875Z,9.95
2022-08-08T19:31:07.457Z,10.07
2022-08-08T19:36:14.445Z,8.30
2022-08-08T19:41:20.939Z,8.20
2022-08-08T19:46:23.563Z,8.93
2022-08-08T19:51:34.548Z,13.55
2022-08-08T19:56:48.587Z,8.75
2022-08-08T20:02:03.227Z,7.97
2022-08-08T20:08:28.023Z,6.43
2022-08-08T20:12:35.131Z,5.68
2022-08-08T20:17:39.065Z,6.10
2022-08-08T20:22:41.377Z,5.53
2022-08-08T20:27:50.303Z,5.32
2022-08-08T20:32:55.920Z,5.43
2022-08-08T20:37:59.454Z,5.30
2022-08-08T20:43:02.087Z,5.07
2022-08-08T20:48:26.036Z,5.10
2022-08-08T20:53:59.785Z,4.97
2022-08-08T20:58:52.322Z,4.72
2022-08-08T21:04:00.217Z,5.90
2022-08-08T21:09:03.884Z,5.25
2022-08-08T21:14:07.538Z,5.40
2022-08-08T21:19:10.899Z,5.20
2022-08-08T21:24:24.111Z,5.60
2022-08-08T21:30:04.423Z,5.90
2022-08-08T21:34:56.809Z,5.05
2022-08-08T21:40:16.522Z,5.72
2022-08-08T21:45:44.186Z,5.78
2022-08-08T21:50:44.849Z,5.22
2022-08-08T21:56:19.480Z,6.47
2022-08-08T22:01:27.915Z,6.95
2022-08-08T22:06:34.191Z,6.55
2022-08-08T22:11:59.420Z,7.43
2022-08-08T22:17:01.782Z,6.28
2022-08-08T22:22:03.950Z,7.43
2022-08-08T22:27:06.376Z,9.05
2022-08-08T22:32:09.016Z,6.63
2022-08-08T22:37:14.921Z,6.30
2022-08-08T22:42:34.347Z,5.90
2022-08-08T22:47:38.195Z,6.30
2022-08-08T22:52:58.773Z,5.63
2022-08-08T22:58:05.216Z,5.95
2022-08-08T23:03:08.635Z,6.47
2022-08-08T23:08:11.639Z,5.57
2022-08-08T23:13:21.955Z,6.20
2022-08-08T23:18:23.845Z,6.43
2022-08-08T23:23:28.698Z,5.50
2022-08-08T23:28:33.361Z,6.38
2022-08-08T23:34:15.901Z,5.75
2022-08-08T23:38:57.926Z,6.82
2022-08-08T23:44:02.909Z,7.15
2022-08-08T23:49:18.134Z,6.72
2022-08-08T23:54:43.639Z,6.13
2022-08-08T23:59:43.233Z,6.38
